sensor_id;sensor_type;location;lat;lon;timestamp;pressure;altitude;pressure_sealevel;temperature;humidity
40650;BME280;26342;42.826;23.992;2023-04-08T00:02:17;95429.50;;;4.30;100.00
40650;BME280;26342;42.826;23.992;2023-04-08T00:04:42;95434.41;;;4.26;100.00
40650;BME280;26342;42.826;23.992;2023-04-08T00:07:07;95440.13;;;4.23;100.00
40650;BME280;26342;42.826;23.992;2023-04-08T00:09:33;95443.06;;;4.08;100.00
40650;BME280;26342;42.826;23.992;2023-04-08T00:11:58;95442.75;;;3.98;100.00
40650;BME280;26342;42.826;23.992;2023-04-08T00:14:24;95445.59;;;3.97;100.00
40650;BME280;26342;42.826;23.992;2023-04-08T00:16:49;95453.53;;;3.97;100.00
40650;BME280;26342;42.826;23.992;2023-04-08T00:19:14;95441.75;;;3.92;100.00
40650;BME280;26342;42.826;23.992;2023-04-08T00:21:40;95445.25;;;3.86;100.00
40650;BME280;26342;42.826;23.992;2023-04-08T00:24:05;95449.91;;;3.91;100.00
40650;BME280;26342;42.826;23.992;2023-04-08T00:26:31;95446.94;;;3.81;100.00
40650;BME280;26342;42.826;23.992;2023-04-08T00:28:56;95443.72;;;3.72;100.00
40650;BME280;26342;42.826;23.992;2023-04-08T00:31:22;95441.72;;;3.68;100.00
40650;BME280;26342;42.826;23.992;2023-04-08T00:33:48;95434.84;;;3.60;100.00
40650;BME280;26342;42.826;23.992;2023-04-08T00:36:13;95440.91;;;3.67;100.00
40650;BME280;26342;42.826;23.992;2023-04-08T00:38:39;95438.72;;;3.57;100.00
40650;BME280;26342;42.826;23.992;2023-04-08T00:41:04;95444.84;;;3.51;100.00
40650;BME280;26342;42.826;23.992;2023-04-08T00:43:30;95442.47;;;3.36;100.00
40650;BME280;26342;42.826;23.992;2023-04-08T00:45:55;95446.13;;;3.35;100.00
40650;BME280;26342;42.826;23.992;2023-04-08T00:48:21;95456.97;;;3.07;100.00
40650;BME280;26342;42.826;23.992;2023-04-08T00:50:46;95450.53;;;2.97;100.00
40650;BME280;26342;42.826;23.992;2023-04-08T00:53:17;95456.22;;;3.00;100.00
40650;BME280;26342;42.826;23.992;2023-04-08T00:55:43;95454.56;;;2.99;100.00
40650;BME280;26342;42.826;23.992;2023-04-08T00:58:09;95452.34;;;3.03;100.00
40650;BME280;26342;42.826;23.992;2023-04-08T01:00:36;95440.59;;;2.99;100.00
40650;BME280;26342;42.826;23.992;2023-04-08T01:03:15;95448.31;;;3.00;100.00
40650;BME280;26342;42.826;23.992;2023-04-08T01:05:57;95452.38;;;2.96;100.00
40650;BME280;26342;42.826;23.992;2023-04-08T01:08:26;95427.50;;;2.72;100.00
40650;BME280;26342;42.826;23.992;2023-04-08T01:10:57;95454.41;;;2.88;100.00
40650;BME280;26342;42.826;23.992;2023-04-08T01:13:25;95405.03;;;2.50;100.00
40650;BME280;26342;42.826;23.992;2023-04-08T01:15:52;95455.22;;;2.88;100.00
40650;BME280;26342;42.826;23.992;2023-04-08T01:18:20;95461.50;;;2.94;100.00
40650;BME280;26342;42.826;23.992;2023-04-08T01:20:46;95451.56;;;2.89;100.00
40650;BME280;26342;42.826;23.992;2023-04-08T01:26:00;95458.88;;;2.87;100.00
40650;BME280;26342;42.826;23.992;2023-04-08T01:28:28;95471.63;;;2.97;100.00
40650;BME280;26342;42.826;23.992;2023-04-08T01:30:56;95471.84;;;2.95;100.00
40650;BME280;26342;42.826;23.992;2023-04-08T01:33:23;95462.47;;;2.99;100.00
40650;BME280;26342;42.826;23.992;2023-04-08T01:35:50;95468.97;;;3.03;100.00
40650;BME280;26342;42.826;23.992;2023-04-08T01:38:18;95468.75;;;3.05;100.00
40650;BME280;26342;42.826;23.992;2023-04-08T01:40:46;95458.44;;;3.03;100.00
40650;BME280;26342;42.826;23.992;2023-04-08T01:43:16;95469.19;;;3.08;100.00
40650;BME280;26342;42.826;23.992;2023-04-08T01:45:46;95468.53;;;3.06;100.00
40650;BME280;26342;42.826;23.992;2023-04-08T01:48:12;95421.56;;;2.84;100.00
40650;BME280;26342;42.826;23.992;2023-04-08T01:50:40;95465.91;;;3.13;100.00
40650;BME280;26342;42.826;23.992;2023-04-08T01:53:08;95459.00;;;3.12;100.00
40650;BME280;26342;42.826;23.992;2023-04-08T01:55:34;95463.03;;;3.15;100.00
40650;BME280;26342;42.826;23.992;2023-04-08T01:58:01;95457.41;;;3.11;100.00
40650;BME280;26342;42.826;23.992;2023-04-08T02:00:30;95465.25;;;3.24;100.00
40650;BME280;26342;42.826;23.992;2023-04-08T02:02:57;95465.28;;;3.18;100.00
40650;BME280;26342;42.826;23.992;2023-04-08T02:05:23;95480.88;;;3.26;100.00
40650;BME280;26342;42.826;23.992;2023-04-08T02:07:48;95472.56;;;3.22;100.00
40650;BME280;26342;42.826;23.992;2023-04-08T02:10:15;95490.22;;;3.22;100.00
40650;BME280;26342;42.826;23.992;2023-04-08T02:12:41;95484.94;;;3.15;100.00
40650;BME280;26342;42.826;23.992;2023-04-08T02:15:08;95492.84;;;3.22;100.00
40650;BME280;26342;42.826;23.992;2023-04-08T02:18:16;95487.19;;;3.18;100.00
40650;BME280;26342;42.826;23.992;2023-04-08T02:20:35;95487.78;;;3.14;100.00
40650;BME280;26342;42.826;23.992;2023-04-08T02:23:09;95480.09;;;3.12;100.00
40650;BME280;26342;42.826;23.992;2023-04-08T02:25:42;95475.47;;;3.01;100.00
40650;BME280;26342;42.826;23.992;2023-04-08T02:28:09;95474.66;;;3.00;100.00
40650;BME280;26342;42.826;23.992;2023-04-08T02:30:36;95497.31;;;3.15;100.00
40650;BME280;26342;42.826;23.992;2023-04-08T02:33:06;95472.03;;;3.00;100.00
40650;BME280;26342;42.826;23.992;2023-04-08T02:35:33;95496.31;;;3.16;100.00
40650;BME280;26342;42.826;23.992;2023-04-08T02:37:59;95491.44;;;3.13;100.00
40650;BME280;26342;42.826;23.992;2023-04-08T02:40:26;95492.47;;;3.18;100.00
40650;BME280;26342;42.826;23.992;2023-04-08T02:42:53;95490.41;;;3.20;100.00
40650;BME280;26342;42.826;23.992;2023-04-08T02:45:19;95490.22;;;3.15;100.00
40650;BME280;26342;42.826;23.992;2023-04-08T02:47:44;95480.69;;;3.14;100.00
40650;BME280;26342;42.826;23.992;2023-04-08T02:50:10;95484.94;;;3.22;100.00
40650;BME280;26342;42.826;23.992;2023-04-08T02:52:35;95488.38;;;3.22;100.00
40650;BME280;26342;42.826;23.992;2023-04-08T02:55:01;95481.91;;;3.25;100.00
40650;BME280;26342;42.826;23.992;2023-04-08T02:57:26;95486.97;;;3.20;100.00
40650;BME280;26342;42.826;23.992;2023-04-08T02:59:52;95489.59;;;3.20;100.00
40650;BME280;26342;42.826;23.992;2023-04-08T03:02:17;95505.22;;;3.21;100.00
40650;BME280;26342;42.826;23.992;2023-04-08T03:04:43;95492.47;;;3.18;100.00
40650;BME280;26342;42.826;23.992;2023-04-08T03:07:08;95484.75;;;3.17;100.00
40650;BME280;26342;42.826;23.992;2023-04-08T03:09:34;95493.88;;;3.21;100.00
40650;BME280;26342;42.826;23.992;2023-04-08T03:11:59;95502.78;;;3.26;100.00
40650;BME280;26342;42.826;23.992;2023-04-08T03:14:24;95500.53;;;3.30;100.00
40650;BME280;26342;42.826;23.992;2023-04-08T03:16:50;95484.09;;;3.28;100.00
40650;BME280;26342;42.826;23.992;2023-04-08T03:19:15;95485.34;;;3.25;100.00
40650;BME280;26342;42.826;23.992;2023-04-08T03:21:41;95499.72;;;3.29;100.00
40650;BME280;26342;42.826;23.992;2023-04-08T03:24:07;95494.84;;;3.33;100.00
40650;BME280;26342;42.826;23.992;2023-04-08T03:26:32;95491.19;;;3.34;100.00
40650;BME280;26342;42.826;23.992;2023-04-08T03:28:58;95486.94;;;3.33;100.00
40650;BME280;26342;42.826;23.992;2023-04-08T03:31:24;95493.25;;;3.32;100.00
40650;BME280;26342;42.826;23.992;2023-04-08T03:33:49;95497.69;;;3.31;100.00
40650;BME280;26342;42.826;23.992;2023-04-08T03:36:14;95496.69;;;3.32;100.00
40650;BME280;26342;42.826;23.992;2023-04-08T03:38:40;95497.88;;;3.30;100.00
40650;BME280;26342;42.826;23.992;2023-04-08T03:41:05;95497.50;;;3.26;100.00
40650;BME280;26342;42.826;23.992;2023-04-08T03:43:31;95491.63;;;3.24;100.00
40650;BME280;26342;42.826;23.992;2023-04-08T03:45:56;95494.88;;;3.26;100.00
40650;BME280;26342;42.826;23.992;2023-04-08T03:48:22;95500.16;;;3.26;100.00
40650;BME280;26342;42.826;23.992;2023-04-08T03:50:47;95484.13;;;3.21;100.00
40650;BME280;26342;42.826;23.992;2023-04-08T03:53:13;95498.53;;;3.25;100.00
40650;BME280;26342;42.826;23.992;2023-04-08T03:55:38;95499.13;;;3.27;100.00
40650;BME280;26342;42.826;23.992;2023-04-08T03:58:05;95497.50;;;3.33;100.00
40650;BME280;26342;42.826;23.992;2023-04-08T04:00:30;95494.03;;;3.32;100.00
40650;BME280;26342;42.826;23.992;2023-04-08T04:02:56;95492.63;;;3.30;100.00
40650;BME280;26342;42.826;23.992;2023-04-08T04:05:21;95496.03;;;3.37;100.00
40650;BME280;26342;42.826;23.992;2023-04-08T04:07:47;95495.22;;;3.36;100.00
40650;BME280;26342;42.826;23.992;2023-04-08T04:10:12;95492.00;;;3.34;100.00
40650;BME280;26342;42.826;23.992;2023-04-08T04:12:38;95483.69;;;3.31;100.00
40650;BME280;26342;42.826;23.992;2023-04-08T04:15:04;95494.44;;;3.36;100.00
40650;BME280;26342;42.826;23.992;2023-04-08T04:17:29;95492.41;;;3.31;100.00
40650;BME280;26342;42.826;23.992;2023-04-08T04:19:55;95497.84;;;3.43;100.00
40650;BME280;26342;42.826;23.992;2023-04-08T04:22:20;95500.50;;;3.36;100.00
40650;BME280;26342;42.826;23.992;2023-04-08T04:24:47;95492.81;;;3.28;100.00
40650;BME280;26342;42.826;23.992;2023-04-08T04:27:13;95500.13;;;3.33;100.00
40650;BME280;26342;42.826;23.992;2023-04-08T04:29:38;95502.78;;;3.20;100.00
40650;BME280;26342;42.826;23.992;2023-04-08T04:32:04;95501.56;;;3.16;100.00
40650;BME280;26342;42.826;23.992;2023-04-08T04:34:30;95491.44;;;3.13;100.00
40650;BME280;26342;42.826;23.992;2023-04-08T04:36:56;95494.50;;;3.16;100.00
40650;BME280;26342;42.826;23.992;2023-04-08T04:39:21;95495.09;;;3.25;100.00
40650;BME280;26342;42.826;23.992;2023-04-08T04:41:47;95504.78;;;3.31;100.00
40650;BME280;26342;42.826;23.992;2023-04-08T04:44:13;95503.56;;;3.33;100.00
40650;BME280;26342;42.826;23.992;2023-04-08T04:46:38;95503.16;;;3.36;100.00
40650;BME280;26342;42.826;23.992;2023-04-08T04:49:04;95507.41;;;3.38;100.00
40650;BME280;26342;42.826;23.992;2023-04-08T04:51:31;95505.19;;;3.34;100.00
40650;BME280;26342;42.826;23.992;2023-04-08T04:53:57;95502.53;;;3.41;100.00
40650;BME280;26342;42.826;23.992;2023-04-08T04:56:23;95508.78;;;3.47;100.00
40650;BME280;26342;42.826;23.992;2023-04-08T04:58:50;95500.84;;;3.53;100.00
40650;BME280;26342;42.826;23.992;2023-04-08T05:01:15;95520.69;;;3.62;100.00
40650;BME280;26342;42.826;23.992;2023-04-08T05:03:40;95503.69;;;3.58;100.00
40650;BME280;26342;42.826;23.992;2023-04-08T05:06:06;95520.31;;;3.59;100.00
40650;BME280;26342;42.826;23.992;2023-04-08T05:08:31;95517.28;;;3.55;100.00
40650;BME280;26342;42.826;23.992;2023-04-08T05:10:57;95505.75;;;3.50;100.00
40650;BME280;26342;42.826;23.992;2023-04-08T05:13:26;95520.53;;;3.57;100.00
40650;BME280;26342;42.826;23.992;2023-04-08T05:15:52;95524.97;;;3.63;100.00
40650;BME280;26342;42.826;23.992;2023-04-08T05:18:17;95510.56;;;3.59;100.00
40650;BME280;26342;42.826;23.992;2023-04-08T05:20:44;95521.50;;;3.63;100.00
40650;BME280;26342;42.826;23.992;2023-04-08T05:23:09;95519.47;;;3.72;100.00
40650;BME280;26342;42.826;23.992;2023-04-08T05:25:36;95524.69;;;3.78;100.00
40650;BME280;26342;42.826;23.992;2023-04-08T05:28:03;95515.34;;;3.82;100.00
40650;BME280;26342;42.826;23.992;2023-04-08T05:30:29;95519.78;;;3.88;100.00
40650;BME280;26342;42.826;23.992;2023-04-08T05:32:55;95513.28;;;3.84;100.00
40650;BME280;26342;42.826;23.992;2023-04-08T05:35:20;95527.84;;;3.93;100.00
40650;BME280;26342;42.826;23.992;2023-04-08T05:37:46;95527.47;;;3.97;100.00
40650;BME280;26342;42.826;23.992;2023-04-08T05:40:11;95526.22;;;3.99;100.00
40650;BME280;26342;42.826;23.992;2023-04-08T05:42:37;95521.31;;;4.03;100.00
40650;BME280;26342;42.826;23.992;2023-04-08T05:45:02;95521.88;;;4.11;100.00
40650;BME280;26342;42.826;23.992;2023-04-08T05:47:28;95518.22;;;4.12;100.00
40650;BME280;26342;42.826;23.992;2023-04-08T05:49:54;95528.53;;;4.20;100.00
40650;BME280;26342;42.826;23.992;2023-04-08T05:52:19;95517.53;;;4.24;100.00
40650;BME280;26342;42.826;23.992;2023-04-08T05:54:45;95515.44;;;4.32;100.00
40650;BME280;26342;42.826;23.992;2023-04-08T05:57:10;95518.63;;;4.41;100.00
40650;BME280;26342;42.826;23.992;2023-04-08T05:59:36;95518.16;;;4.51;100.00
40650;BME280;26342;42.826;23.992;2023-04-08T06:02:02;95516.34;;;4.51;100.00
40650;BME280;26342;42.826;23.992;2023-04-08T06:04:27;95503.13;;;4.51;100.00
40650;BME280;26342;42.826;23.992;2023-04-08T06:06:52;95512.50;;;4.72;100.00
40650;BME280;26342;42.826;23.992;2023-04-08T06:09:18;95509.22;;;4.76;100.00
40650;BME280;26342;42.826;23.992;2023-04-08T06:11:43;95509.50;;;4.87;100.00
40650;BME280;26342;42.826;23.992;2023-04-08T06:14:11;95506.16;;;4.98;100.00
40650;BME280;26342;42.826;23.992;2023-04-08T06:16:37;95502.56;;;5.11;100.00
40650;BME280;26342;42.826;23.992;2023-04-08T06:19:02;95508.69;;;5.29;100.00
40650;BME280;26342;42.826;23.992;2023-04-08T06:21:27;95498.47;;;5.33;100.00
40650;BME280;26342;42.826;23.992;2023-04-08T06:23:53;95485.97;;;5.40;100.00
40650;BME280;26342;42.826;23.992;2023-04-08T06:26:18;95483.38;;;5.52;100.00
40650;BME280;26342;42.826;23.992;2023-04-08T06:28:44;95489.97;;;5.79;100.00
40650;BME280;26342;42.826;23.992;2023-04-08T06:31:09;95495.84;;;6.00;100.00
40650;BME280;26342;42.826;23.992;2023-04-08T06:33:34;95480.81;;;6.12;100.00
40650;BME280;26342;42.826;23.992;2023-04-08T06:36:01;95486.41;;;6.34;100.00
40650;BME280;26342;42.826;23.992;2023-04-08T06:38:28;95484.78;;;6.44;100.00
40650;BME280;26342;42.826;23.992;2023-04-08T06:40:53;95486.44;;;6.57;100.00
40650;BME280;26342;42.826;23.992;2023-04-08T06:43:18;95480.91;;;6.82;100.00
40650;BME280;26342;42.826;23.992;2023-04-08T06:45:44;95476.63;;;7.16;100.00
40650;BME280;26342;42.826;23.992;2023-04-08T06:48:10;95481.78;;;7.46;100.00
40650;BME280;26342;42.826;23.992;2023-04-08T06:50:36;95483.22;;;7.66;100.00
40650;BME280;26342;42.826;23.992;2023-04-08T06:53:01;95470.06;;;7.99;100.00
40650;BME280;26342;42.826;23.992;2023-04-08T06:55:27;95474.00;;;8.25;100.00
40650;BME280;26342;42.826;23.992;2023-04-08T06:57:52;95455.13;;;8.38;100.00
40650;BME280;26342;42.826;23.992;2023-04-08T07:00:18;95480.91;;;8.55;100.00
40650;BME280;26342;42.826;23.992;2023-04-08T07:02:43;95478.66;;;8.63;100.00
40650;BME280;26342;42.826;23.992;2023-04-08T07:05:09;95472.19;;;8.76;100.00
40650;BME280;26342;42.826;23.992;2023-04-08T07:07:35;95479.13;;;8.94;100.00
40650;BME280;26342;42.826;23.992;2023-04-08T07:10:00;95437.19;;;8.84;100.00
40650;BME280;26342;42.826;23.992;2023-04-08T07:12:26;95474.25;;;9.08;100.00
40650;BME280;26342;42.826;23.992;2023-04-08T07:14:51;95474.97;;;9.20;100.00
40650;BME280;26342;42.826;23.992;2023-04-08T07:17:17;95474.09;;;9.14;100.00
40650;BME280;26342;42.826;23.992;2023-04-08T07:19:43;95482.28;;;9.30;100.00
40650;BME280;26342;42.826;23.992;2023-04-08T07:22:08;95474.13;;;9.36;100.00
40650;BME280;26342;42.826;23.992;2023-04-08T07:24:34;95480.97;;;9.49;100.00
40650;BME280;26342;42.826;23.992;2023-04-08T07:26:59;95491.19;;;9.57;100.00
40650;BME280;26342;42.826;23.992;2023-04-08T07:29:25;95482.31;;;9.51;100.00
40650;BME280;26342;42.826;23.992;2023-04-08T07:31:52;95477.38;;;9.82;100.00
40650;BME280;26342;42.826;23.992;2023-04-08T07:34:17;95482.47;;;10.11;96.64
40650;BME280;26342;42.826;23.992;2023-04-08T07:36:43;95478.44;;;10.30;96.16
40650;BME280;26342;42.826;23.992;2023-04-08T07:39:08;95493.47;;;10.41;94.50
40650;BME280;26342;42.826;23.992;2023-04-08T07:41:33;95480.66;;;10.38;93.47
40650;BME280;26342;42.826;23.992;2023-04-08T07:43:59;95485.31;;;10.53;86.78
40650;BME280;26342;42.826;23.992;2023-04-08T07:46:25;95485.13;;;10.59;82.25
40650;BME280;26342;42.826;23.992;2023-04-08T07:48:50;95481.06;;;10.57;88.12
40650;BME280;26342;42.826;23.992;2023-04-08T07:51:16;95487.44;;;10.51;84.67
40650;BME280;26342;42.826;23.992;2023-04-08T07:53:41;95495.69;;;10.49;85.36
40650;BME280;26342;42.826;23.992;2023-04-08T07:56:14;95496.88;;;10.63;85.08
40650;BME280;26342;42.826;23.992;2023-04-08T07:58:42;95502.28;;;10.69;82.02
40650;BME280;26342;42.826;23.992;2023-04-08T08:01:18;95497.41;;;10.60;80.02
40650;BME280;26342;42.826;23.992;2023-04-08T08:03:46;95502.75;;;10.60;83.73
40650;BME280;26342;42.826;23.992;2023-04-08T08:06:12;95503.50;;;10.56;85.46
40650;BME280;26342;42.826;23.992;2023-04-08T08:08:37;95507.56;;;10.63;86.56
40650;BME280;26342;42.826;23.992;2023-04-08T08:11:02;95522.63;;;10.75;89.48
40650;BME280;26342;42.826;23.992;2023-04-08T08:13:28;95518.56;;;10.67;92.70
40650;BME280;26342;42.826;23.992;2023-04-08T08:15:53;95503.50;;;10.56;89.14
40650;BME280;26342;42.826;23.992;2023-04-08T08:18:19;95520.66;;;10.65;92.93
40650;BME280;26342;42.826;23.992;2023-04-08T08:20:45;95501.72;;;10.67;91.15
40650;BME280;26342;42.826;23.992;2023-04-08T08:23:10;95514.81;;;10.68;91.45
40650;BME280;26342;42.826;23.992;2023-04-08T08:25:35;95511.28;;;10.62;87.66
40650;BME280;26342;42.826;23.992;2023-04-08T08:28:01;95512.00;;;10.53;92.36
40650;BME280;26342;42.826;23.992;2023-04-08T08:30:26;95515.28;;;10.60;89.37
40650;BME280;26342;42.826;23.992;2023-04-08T08:32:52;95519.91;;;10.70;88.82
40650;BME280;26342;42.826;23.992;2023-04-08T08:35:18;95514.50;;;10.65;90.91
40650;BME280;26342;42.826;23.992;2023-04-08T08:37:43;95521.84;;;10.79;91.50
40650;BME280;26342;42.826;23.992;2023-04-08T08:40:09;95525.50;;;11.00;86.77
40650;BME280;26342;42.826;23.992;2023-04-08T08:42:35;95517.38;;;10.90;88.30
40650;BME280;26342;42.826;23.992;2023-04-08T08:45:01;95520.44;;;11.04;87.12
40650;BME280;26342;42.826;23.992;2023-04-08T08:47:27;95518.88;;;11.08;81.84
40650;BME280;26342;42.826;23.992;2023-04-08T08:49:53;95512.25;;;11.15;84.59
40650;BME280;26342;42.826;23.992;2023-04-08T08:52:18;95514.78;;;11.32;84.77
40650;BME280;26342;42.826;23.992;2023-04-08T08:54:44;95522.00;;;11.37;78.23
40650;BME280;26342;42.826;23.992;2023-04-08T08:57:17;95519.84;;;11.34;79.36
40650;BME280;26342;42.826;23.992;2023-04-08T08:59:47;95514.50;;;11.34;81.05
40650;BME280;26342;42.826;23.992;2023-04-08T09:02:32;95526.09;;;11.50;80.96
40650;BME280;26342;42.826;23.992;2023-04-08T09:05:03;95517.06;;;11.56;81.70
40650;BME280;26342;42.826;23.992;2023-04-08T09:07:30;95525.34;;;11.54;79.03
40650;BME280;26342;42.826;23.992;2023-04-08T09:09:59;95521.88;;;11.59;79.25
40650;BME280;26342;42.826;23.992;2023-04-08T09:12:25;95526.75;;;11.72;82.82
40650;BME280;26342;42.826;23.992;2023-04-08T09:15:08;95524.19;;;11.87;80.79
40650;BME280;26342;42.826;23.992;2023-04-08T09:17:35;95527.94;;;11.91;77.01
40650;BME280;26342;42.826;23.992;2023-04-08T09:20:05;95537.28;;;11.89;77.92
40650;BME280;26342;42.826;23.992;2023-04-08T09:22:42;95523.16;;;11.93;74.94
40650;BME280;26342;42.826;23.992;2023-04-08T09:25:23;95527.72;;;12.03;71.39
40650;BME280;26342;42.826;23.992;2023-04-08T09:27:48;95518.56;;;11.89;68.56
40650;BME280;26342;42.826;23.992;2023-04-08T09:30:15;95528.47;;;11.88;72.36
40650;BME280;26342;42.826;23.992;2023-04-08T09:32:51;95537.50;;;11.77;71.56
40650;BME280;26342;42.826;23.992;2023-04-08T09:35:18;95531.69;;;11.90;73.13
40650;BME280;26342;42.826;23.992;2023-04-08T09:37:43;95525.28;;;11.96;71.67
40650;BME280;26342;42.826;23.992;2023-04-08T09:40:09;95530.09;;;11.99;69.38
40650;BME280;26342;42.826;23.992;2023-04-08T09:42:39;95530.84;;;11.85;71.64
40650;BME280;26342;42.826;23.992;2023-04-08T09:45:06;95523.91;;;11.89;70.61
40650;BME280;26342;42.826;23.992;2023-04-08T09:47:40;95528.41;;;11.78;72.08
40650;BME280;26342;42.826;23.992;2023-04-08T09:50:07;95536.53;;;11.98;72.14
40650;BME280;26342;42.826;23.992;2023-04-08T09:52:43;95528.47;;;11.88;69.57
40650;BME280;26342;42.826;23.992;2023-04-08T09:55:12;95529.81;;;11.91;69.47
40650;BME280;26342;42.826;23.992;2023-04-08T09:58:03;95538.63;;;11.86;67.74
40650;BME280;26342;42.826;23.992;2023-04-08T10:00:37;95536.19;;;11.85;71.62
40650;BME280;26342;42.826;23.992;2023-04-08T10:05:57;95534.03;;;11.82;70.46
40650;BME280;26342;42.826;23.992;2023-04-08T10:08:25;95534.88;;;11.87;72.19
40650;BME280;26342;42.826;23.992;2023-04-08T10:10:53;95535.94;;;11.86;71.06
40650;BME280;26342;42.826;23.992;2023-04-08T10:13:22;95538.41;;;11.93;73.27
40650;BME280;26342;42.826;23.992;2023-04-08T10:16:19;95528.22;;;11.95;68.08
40650;BME280;26342;42.826;23.992;2023-04-08T10:18:50;95534.44;;;12.11;68.41
40650;BME280;26342;42.826;23.992;2023-04-08T10:23:58;95528.59;;;12.24;66.37
40650;BME280;26342;42.826;23.992;2023-04-08T10:26:30;95527.22;;;12.11;66.02
40650;BME280;26342;42.826;23.992;2023-04-08T10:31:49;95515.41;;;11.97;68.19
40650;BME280;26342;42.826;23.992;2023-04-08T10:34:18;95515.66;;;11.95;70.51
40650;BME280;26342;42.826;23.992;2023-04-08T10:36:46;95526.91;;;11.97;68.30
40650;BME280;26342;42.826;23.992;2023-04-08T10:39:15;95523.38;;;11.87;68.94
40650;BME280;26342;42.826;23.992;2023-04-08T10:41:45;95519.91;;;11.91;70.94
40650;BME280;26342;42.826;23.992;2023-04-08T10:44:26;95519.91;;;11.91;71.26
40650;BME280;26342;42.826;23.992;2023-04-08T10:46:52;95516.69;;;11.89;68.95
40650;BME280;26342;42.826;23.992;2023-04-08T10:49:19;95516.97;;;11.88;70.69
40650;BME280;26342;42.826;23.992;2023-04-08T10:51:49;95521.19;;;11.79;69.93
40650;BME280;26342;42.826;23.992;2023-04-08T10:54:24;95521.38;;;11.62;71.37
40650;BME280;26342;42.826;23.992;2023-04-08T11:00:38;95523.53;;;11.70;75.42
40650;BME280;26342;42.826;23.992;2023-04-08T11:03:09;95523.25;;;11.66;70.94
40650;BME280;26342;42.826;23.992;2023-04-08T11:05:38;95519.81;;;11.76;74.21
40650;BME280;26342;42.826;23.992;2023-04-08T11:08:06;95516.13;;;11.82;74.03
40650;BME280;26342;42.826;23.992;2023-04-08T11:10:37;95515.78;;;11.73;73.44
40650;BME280;26342;42.826;23.992;2023-04-08T11:13:06;95512.38;;;11.83;74.50
40650;BME280;26342;42.826;23.992;2023-04-08T11:15:39;95517.75;;;11.83;75.46
40650;BME280;26342;42.826;23.992;2023-04-08T11:18:10;95518.81;;;11.82;74.55
40650;BME280;26342;42.826;23.992;2023-04-08T11:20:39;95520.94;;;11.80;74.18
40650;BME280;26342;42.826;23.992;2023-04-08T11:23:14;95514.47;;;11.76;71.47
40650;BME280;26342;42.826;23.992;2023-04-08T11:25:41;95514.72;;;11.69;73.48
40650;BME280;26342;42.826;23.992;2023-04-08T11:28:08;95512.00;;;11.64;75.82
40650;BME280;26342;42.826;23.992;2023-04-08T11:30:34;95506.94;;;11.68;76.09
40650;BME280;26342;42.826;23.992;2023-04-08T11:33:01;95506.13;;;11.67;73.80
40650;BME280;26342;42.826;23.992;2023-04-08T11:35:30;95500.47;;;11.59;73.78
40650;BME280;26342;42.826;23.992;2023-04-08T11:37:56;95506.13;;;11.62;72.86
40650;BME280;26342;42.826;23.992;2023-04-08T11:40:25;95508.84;;;11.72;75.58
40650;BME280;26342;42.826;23.992;2023-04-08T11:42:51;95506.41;;;11.66;72.43
40650;BME280;26342;42.826;23.992;2023-04-08T11:45:19;95508.84;;;11.72;74.20
40650;BME280;26342;42.826;23.992;2023-04-08T11:47:46;95505.88;;;11.64;76.54
40650;BME280;26342;42.826;23.992;2023-04-08T11:50:21;95500.91;;;11.83;74.86
40650;BME280;26342;42.826;23.992;2023-04-08T11:52:51;95509.75;;;11.88;74.07
40650;BME280;26342;42.826;23.992;2023-04-08T11:57:47;95504.22;;;12.10;73.00
40650;BME280;26342;42.826;23.992;2023-04-08T12:00:13;95501.28;;;12.22;71.28
40650;BME280;26342;42.826;23.992;2023-04-08T12:02:42;95494.41;;;12.41;75.22
40650;BME280;26342;42.826;23.992;2023-04-08T12:05:09;95499.72;;;12.36;69.65
40650;BME280;26342;42.826;23.992;2023-04-08T12:07:35;95502.34;;;12.11;70.48
40650;BME280;26342;42.826;23.992;2023-04-08T12:10:01;95509.28;;;12.01;72.88
40650;BME280;26342;42.826;23.992;2023-04-08T12:12:27;95506.97;;;11.73;71.68
40650;BME280;26342;42.826;23.992;2023-04-08T12:14:53;95493.84;;;11.61;74.50
40650;BME280;26342;42.826;23.992;2023-04-08T12:17:19;95494.09;;;11.65;75.04
40650;BME280;26342;42.826;23.992;2023-04-08T12:19:44;95491.44;;;11.65;73.68
40650;BME280;26342;42.826;23.992;2023-04-08T12:22:10;95483.59;;;11.53;75.67
40650;BME280;26342;42.826;23.992;2023-04-08T12:24:36;95480.34;;;11.41;74.92
40650;BME280;26342;42.826;23.992;2023-04-08T12:27:01;95489.94;;;11.32;78.19
40650;BME280;26342;42.826;23.992;2023-04-08T12:29:28;95498.09;;;11.15;82.40
40650;BME280;26342;42.826;23.992;2023-04-08T12:31:54;95497.06;;;10.84;85.58
40650;BME280;26342;42.826;23.992;2023-04-08T12:34:20;95496.50;;;10.82;89.23
40650;BME280;26342;42.826;23.992;2023-04-08T12:36:45;95502.31;;;10.74;92.34
40650;BME280;26342;42.826;23.992;2023-04-08T12:39:11;95495.56;;;10.66;95.31
40650;BME280;26342;42.826;23.992;2023-04-08T12:41:37;95504.88;;;10.63;95.43
40650;BME280;26342;42.826;23.992;2023-04-08T12:44:02;95504.59;;;10.60;98.34
40650;BME280;26342;42.826;23.992;2023-04-08T12:46:28;95494.25;;;10.37;97.57
40650;BME280;26342;42.826;23.992;2023-04-08T12:48:53;95506.31;;;10.44;100.00
40650;BME280;26342;42.826;23.992;2023-04-08T12:51:19;95495.59;;;10.39;100.00
40650;BME280;26342;42.826;23.992;2023-04-08T12:53:44;95499.78;;;10.30;100.00
40650;BME280;26342;42.826;23.992;2023-04-08T12:56:10;95494.88;;;10.22;100.00
40650;BME280;26342;42.826;23.992;2023-04-08T12:58:37;95493.91;;;10.28;100.00
40650;BME280;26342;42.826;23.992;2023-04-08T13:01:02;95491.66;;;10.20;100.00
40650;BME280;26342;42.826;23.992;2023-04-08T13:03:28;95492.69;;;10.19;98.62
40650;BME280;26342;42.826;23.992;2023-04-08T13:05:56;95494.81;;;10.17;100.00
40650;BME280;26342;42.826;23.992;2023-04-08T13:08:23;95494.53;;;10.18;100.00